createdAt,value
2019-05-25T00:01:14.506Z,3.77
2019-05-25T00:03:44.039Z,3.87
2019-05-25T00:06:13.608Z,4.37
2019-05-25T00:08:44.613Z,4.15
2019-05-25T00:11:14.165Z,4.15
2019-05-25T00:13:43.892Z,4.27
2019-05-25T00:16:13.303Z,4.37
2019-05-25T00:18:42.890Z,4.17
2019-05-25T00:21:14.207Z,4.33
2019-05-25T00:23:43.492Z,4.87
2019-05-25T00:26:13.033Z,4.55
2019-05-25T00:28:43.655Z,4.20
2019-05-25T00:31:13.213Z,4.35
2019-05-25T00:33:42.849Z,5.07
2019-05-25T00:36:12.561Z,4.55
2019-05-25T00:38:42.235Z,4.97
2019-05-25T00:41:11.742Z,5.10
2019-05-25T00:43:41.271Z,5.10
2019-05-25T00:46:10.821Z,5.15
2019-05-25T00:48:40.326Z,5.47
2019-05-25T00:51:09.829Z,5.55
2019-05-25T00:53:39.341Z,5.50
2019-05-25T00:56:08.893Z,5.50
2019-05-25T00:58:38.599Z,5.50
2019-05-25T01:01:08.432Z,6.75
2019-05-25T01:03:37.967Z,5.77
2019-05-25T01:06:07.557Z,5.62
2019-05-25T01:08:37.244Z,5.58
2019-05-25T01:11:06.816Z,5.10
2019-05-25T01:13:36.443Z,5.95
2019-05-25T01:16:06.141Z,5.05
2019-05-25T01:18:35.641Z,4.93
2019-05-25T01:21:05.322Z,5.42
2019-05-25T01:23:34.851Z,4.70
2019-05-25T01:26:04.595Z,5.25
2019-05-25T01:31:07.088Z,6.37
2019-05-25T01:33:40.884Z,6.15
2019-05-25T01:36:10.375Z,5.50
2019-05-25T01:38:42.217Z,4.60
2019-05-25T01:41:11.723Z,5.17
2019-05-25T01:43:42.813Z,5.30
2019-05-25T01:46:12.316Z,4.75
2019-05-25T01:48:41.796Z,4.17
2019-05-25T01:51:11.234Z,4.65
2019-05-25T01:53:40.749Z,5.03
2019-05-25T01:56:10.235Z,4.83
2019-05-25T01:58:41.578Z,4.83
2019-05-25T02:01:11.096Z,4.92
2019-05-25T02:03:40.601Z,5.17
2019-05-25T02:06:10.176Z,4.95
2019-05-25T02:08:39.733Z,4.10
2019-05-25T02:11:09.294Z,4.25
2019-05-25T02:13:38.873Z,5.50
2019-05-25T02:16:08.386Z,4.15
2019-05-25T02:18:38.010Z,3.80
2019-05-25T02:21:07.509Z,3.27
2019-05-25T02:23:37.000Z,2.90
2019-05-25T02:26:06.574Z,2.92
2019-05-25T02:28:36.135Z,3.05
2019-05-25T02:31:05.666Z,3.55
2019-05-25T02:33:35.302Z,3.12
2019-05-25T02:36:04.927Z,4.70
2019-05-25T02:38:34.486Z,5.17
2019-05-25T02:41:04.058Z,5.20
2019-05-25T02:43:33.748Z,5.20
2019-05-25T02:46:03.342Z,6.62
2019-05-25T02:48:32.943Z,6.53
2019-05-25T02:51:02.449Z,5.90
2019-05-25T02:53:32.383Z,4.28
2019-05-25T02:56:03.451Z,4.03
2019-05-25T02:58:32.995Z,4.75
2019-05-25T03:01:02.518Z,4.70
2019-05-25T03:03:32.278Z,4.37
2019-05-25T03:06:02.725Z,5.25
2019-05-25T03:08:32.623Z,5.83
2019-05-25T03:11:02.237Z,6.17
2019-05-25T03:13:33.033Z,5.70
2019-05-25T03:16:02.509Z,5.12
2019-05-25T03:18:32.057Z,6.17
2019-05-25T03:21:01.506Z,5.87
2019-05-25T03:23:31.051Z,5.95
2019-05-25T03:26:00.610Z,6.90
2019-05-25T03:28:30.158Z,7.22
2019-05-25T03:30:59.680Z,7.55
2019-05-25T03:33:29.281Z,7.45
2019-05-25T03:35:58.736Z,6.72
2019-05-25T03:38:28.266Z,7.20
2019-05-25T03:40:57.819Z,7.42
2019-05-25T03:43:27.299Z,6.95
2019-05-25T03:45:56.731Z,7.28
2019-05-25T03:48:26.361Z,6.90
2019-05-25T03:50:56.506Z,7.33
2019-05-25T03:53:26.082Z,7.70
2019-05-25T03:56:05.221Z,6.90
2019-05-25T03:58:26.715Z,7.95
2019-05-25T04:00:56.353Z,8.63
2019-05-25T04:03:25.843Z,9.57
2019-05-25T04:05:56.440Z,9.50
2019-05-25T04:10:54.566Z,9.80
2019-05-25T04:13:24.164Z,10.50
2019-05-25T04:15:53.718Z,9.08
2019-05-25T04:18:23.236Z,6.80
2019-05-25T04:20:52.859Z,5.55
2019-05-25T04:23:24.129Z,6.90
2019-05-25T04:25:53.581Z,6.75
2019-05-25T04:28:23.114Z,7.67
2019-05-25T04:30:52.633Z,7.60
2019-05-25T04:33:23.892Z,9.38
2019-05-25T04:35:53.419Z,8.43
2019-05-25T04:38:23.051Z,9.70
2019-05-25T04:40:52.606Z,10.40
2019-05-25T04:43:22.145Z,9.18
2019-05-25T04:45:51.617Z,8.55
2019-05-25T04:48:21.112Z,9.43
2019-05-25T04:50:50.655Z,8.68
2019-05-25T04:53:20.173Z,8.00
2019-05-25T04:55:49.960Z,7.60
2019-05-25T04:58:19.518Z,9.30
2019-05-25T05:00:49.027Z,10.03
2019-05-25T05:03:19.706Z,11.03
2019-05-25T05:05:49.219Z,12.20
2019-05-25T05:08:18.714Z,12.13
2019-05-25T05:10:48.229Z,11.65
2019-05-25T05:13:18.792Z,10.43
2019-05-25T05:15:48.332Z,9.48
2019-05-25T05:18:17.869Z,10.37
2019-05-25T05:20:47.434Z,11.43
2019-05-25T05:23:16.992Z,11.43
2019-05-25T05:25:46.488Z,13.25
2019-05-25T05:28:17.531Z,11.30
2019-05-25T05:30:47.035Z,12.43
2019-05-25T05:33:16.534Z,12.05
2019-05-25T05:35:47.406Z,11.30
2019-05-25T05:38:16.976Z,10.72
2019-05-25T05:40:46.861Z,10.10
2019-05-25T05:43:18.326Z,11.45
2019-05-25T05:45:48.862Z,12.28
2019-05-25T05:48:20.573Z,11.18
2019-05-25T05:50:53.022Z,11.80
2019-05-25T05:53:25.129Z,12.50
2019-05-25T05:55:54.728Z,12.23
2019-05-25T05:58:24.254Z,15.10
2019-05-25T06:00:53.856Z,15.83
2019-05-25T06:03:23.388Z,15.70
2019-05-25T06:05:53.118Z,16.67
2019-05-25T06:08:22.595Z,14.70
2019-05-25T06:10:52.166Z,13.48
2019-05-25T06:13:21.568Z,12.93
2019-05-25T06:15:51.106Z,11.75
2019-05-25T06:18:20.566Z,10.93
2019-05-25T06:20:50.174Z,11.63
2019-05-25T06:23:19.712Z,10.17
2019-05-25T06:25:49.155Z,9.80
2019-05-25T06:28:22.293Z,9.60
2019-05-25T06:30:49.997Z,9.40
2019-05-25T06:33:19.567Z,8.88
2019-05-25T06:35:49.073Z,8.23
2019-05-25T06:38:18.533Z,7.70
2019-05-25T06:40:48.017Z,6.85
2019-05-25T06:43:17.557Z,7.22
2019-05-25T06:45:47.134Z,6.33
2019-05-25T06:48:16.596Z,6.23
2019-05-25T06:50:46.168Z,6.55
2019-05-25T06:53:15.649Z,5.60
2019-05-25T06:55:45.170Z,5.22
2019-05-25T06:58:14.725Z,6.37
2019-05-25T07:00:45.741Z,5.72
2019-05-25T07:03:15.335Z,5.05
2019-05-25T07:05:44.809Z,3.52
2019-05-25T07:08:17.214Z,3.60
2019-05-25T07:10:47.088Z,3.92
2019-05-25T07:13:16.579Z,3.40
2019-05-25T07:15:46.111Z,3.08
2019-05-25T07:18:15.747Z,3.10
2019-05-25T07:20:45.325Z,3.30
2019-05-25T07:23:14.825Z,2.97
2019-05-25T07:25:44.793Z,2.70
2019-05-25T07:28:14.323Z,2.70
2019-05-25T07:30:46.597Z,3.22
2019-05-25T07:33:14.983Z,2.75
2019-05-25T07:35:44.513Z,2.83
2019-05-25T07:38:15.603Z,2.60
2019-05-25T07:40:46.174Z,2.85
2019-05-25T07:43:15.805Z,3.07
2019-05-25T07:45:45.417Z,3.42
2019-05-25T07:48:14.919Z,2.63
2019-05-25T07:50:44.441Z,2.85
2019-05-25T07:53:14.040Z,3.00
2019-05-25T07:55:43.550Z,2.72
2019-05-25T08:00:45.203Z,2.70
2019-05-25T08:03:14.946Z,2.05
2019-05-25T08:05:44.734Z,2.53
2019-05-25T08:08:14.276Z,2.20
2019-05-25T08:10:43.782Z,2.70
2019-05-25T08:13:13.398Z,2.47
2019-05-25T08:15:43.238Z,2.80
2019-05-25T08:18:14.833Z,2.60
2019-05-25T08:20:47.023Z,2.55
2019-05-25T08:23:15.503Z,2.67
2019-05-25T08:25:45.113Z,2.67
2019-05-25T08:28:14.635Z,2.62
2019-05-25T08:30:44.219Z,2.87
2019-05-25T08:33:13.948Z,2.73
2019-05-25T08:35:46.361Z,2.30
2019-05-25T08:38:15.252Z,2.80
2019-05-25T08:40:44.860Z,2.55
2019-05-25T08:43:14.451Z,2.77
2019-05-25T08:45:43.959Z,2.80
2019-05-25T08:48:16.513Z,3.15
2019-05-25T08:50:46.058Z,2.60
2019-05-25T08:53:15.624Z,2.80
2019-05-25T08:55:45.105Z,2.98
2019-05-25T08:58:14.612Z,2.70
2019-05-25T09:00:44.771Z,3.00
2019-05-25T09:03:14.300Z,3.72
2019-05-25T09:08:13.537Z,3.45
2019-05-25T09:10:43.113Z,3.62
2019-05-25T09:13:12.563Z,2.90
2019-05-25T09:15:42.039Z,3.25
2019-05-25T09:18:11.524Z,3.15
2019-05-25T09:20:41.013Z,3.52
2019-05-25T09:23:10.590Z,3.20
2019-05-25T09:25:40.740Z,2.90
2019-05-25T09:28:10.278Z,3.00
2019-05-25T09:30:39.777Z,3.08
2019-05-25T09:33:09.210Z,3.25
2019-05-25T09:35:38.754Z,3.00
2019-05-25T09:38:08.305Z,3.67
2019-05-25T09:40:37.859Z,3.60
2019-05-25T09:43:07.371Z,4.00
2019-05-25T09:45:37.995Z,3.67
2019-05-25T09:48:07.546Z,3.65
2019-05-25T09:50:37.215Z,3.37
2019-05-25T09:53:06.773Z,3.30
2019-05-25T09:55:36.325Z,3.98
2019-05-25T09:58:05.851Z,3.53
2019-05-25T10:00:39.849Z,3.00
2019-05-25T10:03:06.691Z,3.60
2019-05-25T10:05:36.260Z,3.67
2019-05-25T10:08:05.906Z,3.90
2019-05-25T10:13:42.237Z,3.80
2019-05-25T10:16:11.706Z,4.20
2019-05-25T10:19:15.799Z,3.40
2019-05-25T10:21:43.749Z,4.05
2019-05-25T10:24:13.254Z,3.80
2019-05-25T10:26:42.708Z,3.83
2019-05-25T10:29:12.198Z,3.80
2019-05-25T10:31:43.632Z,3.60
2019-05-25T10:34:13.094Z,3.72
2019-05-25T10:36:43.239Z,2.75
2019-05-25T10:39:12.756Z,3.12
2019-05-25T10:41:42.603Z,3.14
2019-05-25T10:44:12.161Z,3.20
2019-05-25T10:46:42.657Z,3.33
2019-05-25T10:49:12.377Z,3.00
2019-05-25T11:02:30.160Z,2.83
2019-05-25T11:04:59.588Z,3.00
2019-05-25T11:07:29.085Z,2.60
2019-05-25T11:09:58.542Z,2.67
2019-05-25T11:12:28.034Z,2.67
2019-05-25T11:14:57.626Z,2.83
2019-05-25T11:17:27.293Z,3.30
2019-05-25T11:22:26.492Z,2.65
2019-05-25T11:24:59.092Z,2.47
2019-05-25T11:27:29.010Z,2.45
2019-05-25T11:30:08.626Z,2.45
2019-05-25T11:32:30.774Z,2.95
2019-05-25T11:35:00.244Z,2.90
2019-05-25T11:37:29.746Z,2.50
2019-05-25T11:39:59.266Z,2.90
2019-05-25T11:42:28.844Z,2.83
2019-05-25T11:44:58.331Z,2.47
2019-05-25T11:47:27.813Z,2.17
2019-05-25T11:49:57.376Z,2.52
2019-05-25T11:52:26.858Z,3.37
2019-05-25T11:54:56.341Z,2.30
2019-05-25T11:57:25.794Z,2.52
2019-05-25T11:59:57.778Z,3.17
2019-05-25T12:02:26.445Z,2.70
2019-05-25T12:04:55.978Z,2.90
2019-05-25T12:07:25.423Z,2.33
2019-05-25T12:09:56.474Z,3.02
2019-05-25T12:12:25.943Z,2.80
2019-05-25T12:14:57.000Z,2.40
2019-05-25T12:17:26.455Z,2.72
2019-05-25T12:19:56.003Z,2.60
2019-05-25T12:22:25.465Z,2.43
2019-05-25T12:24:55.009Z,2.95
2019-05-25T12:27:27.501Z,2.70
2019-05-25T12:29:57.008Z,3.17
2019-05-25T12:32:26.641Z,2.20
2019-05-25T12:34:56.373Z,2.35
2019-05-25T12:37:25.835Z,2.30
2019-05-25T12:39:55.329Z,1.90
2019-05-25T12:42:24.842Z,2.53
2019-05-25T12:44:54.321Z,2.57
2019-05-25T12:47:23.785Z,2.27
2019-05-25T12:49:53.301Z,2.12
2019-05-25T12:52:22.773Z,2.53
2019-05-25T12:54:52.240Z,3.10
2019-05-25T12:57:24.142Z,3.10
2019-05-25T12:59:53.017Z,3.17
2019-05-25T13:02:23.794Z,3.33
2019-05-25T13:04:53.247Z,2.98
2019-05-25T13:07:22.825Z,2.97
2019-05-25T13:09:52.505Z,3.23
2019-05-25T13:12:21.963Z,2.70
2019-05-25T13:14:51.467Z,2.72
2019-05-25T13:17:20.916Z,2.60
2019-05-25T13:19:50.462Z,3.45
2019-05-25T13:22:19.983Z,3.50
2019-05-25T13:24:51.185Z,3.42
2019-05-25T13:27:20.657Z,3.55
2019-05-25T13:29:50.159Z,3.35
2019-05-25T13:32:19.680Z,3.60
2019-05-25T13:34:49.224Z,3.05
2019-05-25T13:37:18.755Z,3.10
2019-05-25T13:39:48.283Z,2.90
2019-05-25T13:42:17.739Z,2.07
2019-05-25T13:44:47.336Z,2.40
2019-05-25T13:47:16.768Z,2.43
2019-05-25T13:49:47.952Z,2.45
2019-05-25T13:52:17.478Z,2.57
2019-05-25T13:54:47.071Z,2.45
2019-05-25T13:57:16.520Z,2.07
2019-05-25T13:59:46.155Z,2.58
2019-05-25T14:02:15.606Z,2.97
2019-05-25T14:04:45.112Z,2.87
2019-05-25T14:07:15.666Z,3.20
2019-05-25T14:09:46.862Z,3.52
2019-05-25T14:12:16.345Z,3.55
2019-05-25T14:14:45.842Z,2.80
2019-05-25T14:17:15.364Z,3.17
2019-05-25T14:19:44.943Z,2.87
2019-05-25T14:22:14.466Z,3.00
2019-05-25T14:24:45.305Z,3.25
2019-05-25T14:27:14.744Z,3.60
2019-05-25T14:29:44.292Z,3.22
2019-05-25T14:32:13.870Z,3.50
2019-05-25T14:34:43.438Z,3.22
2019-05-25T14:37:12.932Z,3.40
2019-05-25T14:39:42.434Z,4.00
2019-05-25T14:42:12.034Z,3.53
2019-05-25T14:44:41.567Z,3.75
2019-05-25T14:47:11.022Z,3.57
2019-05-25T14:49:40.831Z,4.10
2019-05-25T14:52:10.279Z,3.58
2019-05-25T14:54:39.897Z,3.25
2019-05-25T14:57:11.358Z,3.10
2019-05-25T14:59:40.572Z,3.27
2019-05-25T15:02:12.745Z,2.97
2019-05-25T15:04:45.601Z,2.85
2019-05-25T15:07:16.853Z,2.83
2019-05-25T15:09:47.641Z,2.40
2019-05-25T15:12:17.139Z,2.33
2019-05-25T15:14:46.596Z,2.47
2019-05-25T15:17:16.120Z,2.98
2019-05-25T15:19:45.712Z,2.83
2019-05-25T15:22:15.309Z,2.67
2019-05-25T15:24:44.792Z,2.80
2019-05-25T15:27:14.432Z,2.58
2019-05-25T15:29:43.887Z,2.83
2019-05-25T15:32:19.932Z,2.62
2019-05-25T15:34:46.482Z,2.37
2019-05-25T15:37:15.726Z,2.45
2019-05-25T15:39:45.263Z,2.35
2019-05-25T15:42:14.837Z,2.43
2019-05-25T15:44:45.450Z,2.72
2019-05-25T15:47:18.340Z,2.70
2019-05-25T15:49:48.595Z,2.62
2019-05-25T15:52:19.382Z,2.33
2019-05-25T15:54:49.375Z,2.30
2019-05-25T15:57:19.116Z,2.22
2019-05-25T15:59:48.732Z,2.70
2019-05-25T16:02:18.309Z,2.15
2019-05-25T16:04:48.043Z,2.47
2019-05-25T16:07:18.105Z,2.40
2019-05-25T16:09:49.816Z,2.50
2019-05-25T16:12:19.327Z,2.45
2019-05-25T16:14:50.332Z,2.47
2019-05-25T16:17:19.753Z,2.70
2019-05-25T16:19:49.224Z,2.55
2019-05-25T16:22:18.879Z,2.57
2019-05-25T16:24:48.413Z,2.58
2019-05-25T16:28:24.360Z,2.33
2019-05-25T16:30:55.598Z,2.00
2019-05-25T16:33:27.558Z,2.22
2019-05-25T16:35:58.001Z,2.30
2019-05-25T16:38:29.643Z,2.20
2019-05-25T16:40:59.337Z,2.85
2019-05-25T16:43:29.782Z,2.22
2019-05-25T16:45:59.315Z,2.35
2019-05-25T16:48:28.797Z,1.80
2019-05-25T16:50:58.279Z,2.40
2019-05-25T16:53:27.853Z,2.45
2019-05-25T16:55:57.354Z,3.10
2019-05-25T16:58:26.834Z,2.35
2019-05-25T17:00:56.568Z,2.37
2019-05-25T17:03:28.541Z,2.20
2019-05-25T17:05:57.295Z,3.10
2019-05-25T17:08:28.313Z,3.02
2019-05-25T17:11:00.811Z,3.02
2019-05-25T17:13:30.960Z,2.20
2019-05-25T17:16:00.437Z,2.10
2019-05-25T17:18:29.937Z,2.30
2019-05-25T17:20:59.421Z,2.60
2019-05-25T17:23:28.912Z,2.10
2019-05-25T17:25:58.468Z,2.83
2019-05-25T17:28:28.339Z,2.50
2019-05-25T17:30:57.980Z,3.50
2019-05-25T17:33:44.655Z,2.30
2019-05-25T17:36:00.193Z,2.55
2019-05-25T17:38:29.841Z,3.50
2019-05-25T17:40:59.332Z,3.05
2019-05-25T17:43:28.902Z,2.30
2019-05-25T17:45:59.018Z,2.25
2019-05-25T17:48:28.509Z,2.70
2019-05-25T17:50:58.555Z,3.02
2019-05-25T17:53:28.040Z,2.87
2019-05-25T17:55:57.620Z,3.05
2019-05-25T17:58:27.189Z,2.65
2019-05-25T18:00:56.710Z,2.50
2019-05-25T18:03:26.192Z,2.20
2019-05-25T18:05:55.735Z,2.47
2019-05-25T18:08:25.331Z,2.60
2019-05-25T18:10:54.986Z,2.25
2019-05-25T18:13:24.589Z,2.67
2019-05-25T18:15:54.147Z,2.37
2019-05-25T18:18:23.714Z,2.55
2019-05-25T18:20:53.232Z,2.33
2019-05-25T18:23:22.865Z,1.90
2019-05-25T18:25:52.341Z,2.07
2019-05-25T18:28:21.826Z,2.15
2019-05-25T18:30:51.368Z,2.67
2019-05-25T18:33:20.902Z,2.30
2019-05-25T18:35:50.653Z,2.90
2019-05-25T18:38:20.131Z,3.10
2019-05-25T18:40:49.561Z,2.33
2019-05-25T18:43:19.235Z,2.25
2019-05-25T18:45:48.761Z,2.57
2019-05-25T18:48:18.393Z,2.87
2019-05-25T18:50:47.825Z,2.50
2019-05-25T18:53:17.386Z,2.92
2019-05-25T18:55:46.820Z,2.80
2019-05-25T18:58:16.383Z,2.15
2019-05-25T19:00:45.856Z,2.62
2019-05-25T19:03:15.384Z,2.72
2019-05-25T19:05:44.908Z,3.27
2019-05-25T19:08:14.474Z,2.87
2019-05-25T19:10:44.013Z,2.40
2019-05-25T19:13:13.525Z,2.50
2019-05-25T19:15:43.021Z,2.25
2019-05-25T19:18:13.117Z,2.50
2019-05-25T19:20:42.913Z,2.58
2019-05-25T19:23:12.422Z,2.77
2019-05-25T19:25:42.091Z,2.40
2019-05-25T19:28:11.572Z,2.60
2019-05-25T19:30:41.728Z,2.33
2019-05-25T19:33:11.237Z,2.65
2019-05-25T19:35:40.731Z,2.85
2019-05-25T19:38:10.206Z,2.80
2019-05-25T19:40:42.279Z,3.65
2019-05-25T19:43:12.618Z,3.37
2019-05-25T19:45:42.269Z,2.72
2019-05-25T19:48:13.673Z,2.80
2019-05-25T19:50:43.210Z,3.05
2019-05-25T19:53:13.341Z,3.17
2019-05-25T19:55:42.845Z,2.87
2019-05-25T19:58:12.363Z,2.72
2019-05-25T20:00:41.843Z,3.35
2019-05-25T20:03:11.394Z,3.02
2019-05-25T20:05:40.987Z,3.25
2019-05-25T20:08:10.436Z,3.27
2019-05-25T20:10:39.888Z,3.85
2019-05-25T20:13:11.141Z,3.52
2019-05-25T20:15:40.663Z,3.15
2019-05-25T20:18:10.281Z,3.72
2019-05-25T20:20:39.776Z,3.80
2019-05-25T20:23:09.368Z,3.60
2019-05-25T20:25:39.196Z,3.83
2019-05-25T20:28:08.774Z,3.63
2019-05-25T20:30:39.354Z,3.92
2019-05-25T20:33:08.862Z,3.72
2019-05-25T20:35:38.574Z,3.60
2019-05-25T20:38:08.217Z,3.60
2019-05-25T20:40:37.750Z,4.80
2019-05-25T20:43:07.268Z,4.42
2019-05-25T20:45:39.649Z,5.20
2019-05-25T20:48:10.920Z,4.15
2019-05-25T20:50:41.476Z,5.10
2019-05-25T20:53:13.082Z,5.47
2019-05-25T20:55:43.966Z,4.80
2019-05-25T20:58:17.688Z,5.15
2019-05-25T21:00:48.575Z,5.05
2019-05-25T21:03:19.042Z,5.22
2019-05-25T21:05:51.002Z,5.72
2019-05-25T21:10:50.663Z,4.80
2019-05-25T21:13:21.474Z,5.30
2019-05-25T21:15:53.534Z,5.62
2019-05-25T21:18:24.882Z,6.17
2019-05-25T21:20:54.415Z,6.12
2019-05-25T21:23:26.012Z,5.00
2019-05-25T21:25:55.633Z,5.90
2019-05-25T21:28:25.250Z,5.20
2019-05-25T21:30:54.699Z,5.23
2019-05-25T21:33:25.246Z,4.80
2019-05-25T21:38:27.746Z,4.28
2019-05-25T21:40:57.192Z,4.78
2019-05-25T21:43:26.779Z,4.72
2019-05-25T21:45:56.362Z,5.62
2019-05-25T21:48:27.186Z,6.33
2019-05-25T21:50:56.698Z,5.95
2019-05-25T21:53:29.934Z,6.12
2019-05-25T21:55:59.398Z,5.92
2019-05-25T21:58:28.891Z,5.97
2019-05-25T22:00:58.674Z,6.08
2019-05-25T22:03:33.639Z,6.65
2019-05-25T22:06:06.121Z,6.05
2019-05-25T22:08:35.951Z,6.12
2019-05-25T22:11:06.313Z,6.03
2019-05-25T22:13:35.797Z,6.50
2019-05-25T22:16:06.015Z,6.25
2019-05-25T22:18:35.521Z,8.70
2019-05-25T22:21:05.093Z,13.25
2019-05-25T22:23:34.595Z,15.23
2019-05-25T22:26:05.939Z,14.70
2019-05-25T22:28:44.399Z,13.53
2019-05-25T22:31:06.632Z,9.70
2019-05-25T22:33:36.202Z,8.85
2019-05-25T22:36:05.921Z,8.30
2019-05-25T22:38:35.532Z,9.13
2019-05-25T22:41:04.982Z,8.90
2019-05-25T22:43:34.475Z,8.53
2019-05-25T22:46:04.025Z,9.67
2019-05-25T22:48:33.529Z,7.28
2019-05-25T22:51:02.995Z,9.17
2019-05-25T22:53:32.484Z,9.10
2019-05-25T22:56:01.955Z,8.50
2019-05-25T22:58:32.418Z,8.93
2019-05-25T23:01:01.865Z,8.47
2019-05-25T23:03:33.010Z,8.30
2019-05-25T23:06:02.539Z,9.30
2019-05-25T23:08:34.789Z,9.15
2019-05-25T23:11:04.240Z,9.00
2019-05-25T23:13:33.753Z,9.70
2019-05-25T23:16:03.224Z,8.53
2019-05-25T23:18:32.784Z,9.20
2019-05-25T23:21:02.247Z,9.78
2019-05-25T23:23:31.767Z,8.88
2019-05-25T23:26:01.162Z,8.78
2019-05-25T23:28:30.651Z,8.80
2019-05-25T23:31:00.171Z,7.70
2019-05-25T23:33:29.680Z,8.90
2019-05-25T23:35:59.238Z,7.60
2019-05-25T23:38:28.824Z,9.38
2019-05-25T23:40:58.387Z,8.63
2019-05-25T23:43:27.855Z,8.63
2019-05-25T23:45:58.939Z,7.92
2019-05-25T23:48:28.401Z,8.50
2019-05-25T23:51:01.034Z,9.73
2019-05-25T23:53:30.501Z,9.20
2019-05-25T23:56:00.056Z,9.37
2019-05-25T23:58:32.152Z,11.55
